Aviation Digital Data Service (ADDS)

Output produced by METARs form (1335 UTC 26 May 2018)
found at http://www.aviationweather.gov/adds/metars/
 
TAF MWCB 261100Z 2612/2712 16015G25KT 9999 SHRA SCT016 
     PROB30 
     TEMPO 2619/2622 7000 TSRA SCT012CB BKN030
       
TAF MWCR 261100Z 2612/2712 16015G25KT 9999 VCSH SCT016 
     BECMG 2614/2616 9000 SHRA SCT014TCU 
     PROB30 
     TEMPO 2619/2622 7000 TSRA SCT012CB BKN030